sensor_id;sensor_type;location;lat;lon;timestamp;temperature;humidity
38860;DHT22;24609;48.316;16.174;2023-06-22T00:01:19;19.30;99.90
38860;DHT22;24609;48.316;16.174;2023-06-22T00:03:45;19.10;99.90
38860;DHT22;24609;48.316;16.174;2023-06-22T00:06:11;19.00;99.90
38860;DHT22;24609;48.316;16.174;2023-06-22T00:08:36;18.90;99.90
38860;DHT22;24609;48.316;16.174;2023-06-22T00:11:02;18.80;99.90
38860;DHT22;24609;48.316;16.174;2023-06-22T00:13:28;18.80;99.90
38860;DHT22;24609;48.316;16.174;2023-06-22T00:15:53;18.70;99.90
38860;DHT22;24609;48.316;16.174;2023-06-22T00:18:19;18.70;99.90
38860;DHT22;24609;48.316;16.174;2023-06-22T00:20:45;18.70;99.90
38860;DHT22;24609;48.316;16.174;2023-06-22T00:23:12;18.60;99.90
38860;DHT22;24609;48.316;16.174;2023-06-22T00:25:40;18.60;99.90
38860;DHT22;24609;48.316;16.174;2023-06-22T00:28:07;18.60;99.90
38860;DHT22;24609;48.316;16.174;2023-06-22T00:30:34;18.60;99.90
38860;DHT22;24609;48.316;16.174;2023-06-22T00:33:00;18.50;99.90
38860;DHT22;24609;48.316;16.174;2023-06-22T00:35:27;18.50;99.90
38860;DHT22;24609;48.316;16.174;2023-06-22T00:37:55;18.40;99.90
38860;DHT22;24609;48.316;16.174;2023-06-22T00:40:27;18.40;99.90
38860;DHT22;24609;48.316;16.174;2023-06-22T00:42:53;18.40;99.90
38860;DHT22;24609;48.316;16.174;2023-06-22T00:45:19;18.30;99.90
38860;DHT22;24609;48.316;16.174;2023-06-22T00:47:44;18.30;99.90
38860;DHT22;24609;48.316;16.174;2023-06-22T00:50:16;18.20;99.90
38860;DHT22;24609;48.316;16.174;2023-06-22T00:52:44;18.20;99.90
38860;DHT22;24609;48.316;16.174;2023-06-22T00:55:11;18.20;99.90
38860;DHT22;24609;48.316;16.174;2023-06-22T00:57:37;18.20;99.90
38860;DHT22;24609;48.316;16.174;2023-06-22T01:00:03;18.10;99.90
38860;DHT22;24609;48.316;16.174;2023-06-22T01:02:34;18.10;99.90
38860;DHT22;24609;48.316;16.174;2023-06-22T01:04:59;18.10;99.90
38860;DHT22;24609;48.316;16.174;2023-06-22T01:10:10;18.00;99.90
38860;DHT22;24609;48.316;16.174;2023-06-22T01:12:43;18.00;99.90
38860;DHT22;24609;48.316;16.174;2023-06-22T01:15:25;18.10;99.90
38860;DHT22;24609;48.316;16.174;2023-06-22T01:17:52;18.10;99.90
38860;DHT22;24609;48.316;16.174;2023-06-22T01:20:20;18.10;99.90
38860;DHT22;24609;48.316;16.174;2023-06-22T01:23:10;18.10;99.90
38860;DHT22;24609;48.316;16.174;2023-06-22T01:31:12;18.10;99.90
38860;DHT22;24609;48.316;16.174;2023-06-22T01:33:42;18.00;99.90
38860;DHT22;24609;48.316;16.174;2023-06-22T01:36:08;18.00;99.90
38860;DHT22;24609;48.316;16.174;2023-06-22T01:38:35;18.00;99.90
38860;DHT22;24609;48.316;16.174;2023-06-22T01:41:02;17.90;99.90
38860;DHT22;24609;48.316;16.174;2023-06-22T01:43:29;17.90;99.90
38860;DHT22;24609;48.316;16.174;2023-06-22T01:45:56;17.90;99.90
38860;DHT22;24609;48.316;16.174;2023-06-22T01:48:23;17.90;99.90
38860;DHT22;24609;48.316;16.174;2023-06-22T01:50:49;17.80;99.90
38860;DHT22;24609;48.316;16.174;2023-06-22T01:53:15;17.80;99.90
38860;DHT22;24609;48.316;16.174;2023-06-22T01:55:40;17.80;99.90
38860;DHT22;24609;48.316;16.174;2023-06-22T01:58:06;17.80;99.90
38860;DHT22;24609;48.316;16.174;2023-06-22T02:00:36;17.80;99.90
38860;DHT22;24609;48.316;16.174;2023-06-22T02:03:08;17.90;99.90
38860;DHT22;24609;48.316;16.174;2023-06-22T02:05:39;17.80;99.90
38860;DHT22;24609;48.316;16.174;2023-06-22T02:08:15;17.80;99.90
38860;DHT22;24609;48.316;16.174;2023-06-22T02:10:44;17.70;99.90
38860;DHT22;24609;48.316;16.174;2023-06-22T02:13:11;17.60;99.90
38860;DHT22;24609;48.316;16.174;2023-06-22T02:15:38;17.50;99.90
38860;DHT22;24609;48.316;16.174;2023-06-22T02:18:04;17.50;99.90
38860;DHT22;24609;48.316;16.174;2023-06-22T02:20:30;17.50;99.90
38860;DHT22;24609;48.316;16.174;2023-06-22T02:22:56;17.40;99.90
38860;DHT22;24609;48.316;16.174;2023-06-22T02:25:22;17.40;99.90
38860;DHT22;24609;48.316;16.174;2023-06-22T02:27:48;17.30;99.90
38860;DHT22;24609;48.316;16.174;2023-06-22T02:30:14;17.40;99.90
38860;DHT22;24609;48.316;16.174;2023-06-22T02:32:41;17.30;99.90
38860;DHT22;24609;48.316;16.174;2023-06-22T02:35:11;17.30;99.90
38860;DHT22;24609;48.316;16.174;2023-06-22T02:37:37;17.30;99.90
38860;DHT22;24609;48.316;16.174;2023-06-22T02:40:08;17.30;99.90
38860;DHT22;24609;48.316;16.174;2023-06-22T02:42:37;17.30;99.90
38860;DHT22;24609;48.316;16.174;2023-06-22T02:45:03;17.30;99.90
38860;DHT22;24609;48.316;16.174;2023-06-22T02:47:29;17.20;99.90
38860;DHT22;24609;48.316;16.174;2023-06-22T02:49:55;17.20;99.90
38860;DHT22;24609;48.316;16.174;2023-06-22T02:52:20;17.10;99.90
38860;DHT22;24609;48.316;16.174;2023-06-22T02:54:46;17.10;99.90
38860;DHT22;24609;48.316;16.174;2023-06-22T02:57:12;17.00;99.90
38860;DHT22;24609;48.316;16.174;2023-06-22T02:59:42;17.00;99.90
38860;DHT22;24609;48.316;16.174;2023-06-22T03:02:08;17.10;99.90
38860;DHT22;24609;48.316;16.174;2023-06-22T03:04:35;17.00;99.90
38860;DHT22;24609;48.316;16.174;2023-06-22T03:07:01;17.10;99.90
38860;DHT22;24609;48.316;16.174;2023-06-22T03:09:28;17.00;99.90
38860;DHT22;24609;48.316;16.174;2023-06-22T03:11:54;17.00;99.90
38860;DHT22;24609;48.316;16.174;2023-06-22T03:14:20;17.00;99.90
38860;DHT22;24609;48.316;16.174;2023-06-22T03:16:46;17.10;99.90
38860;DHT22;24609;48.316;16.174;2023-06-22T03:19:12;17.10;99.90
38860;DHT22;24609;48.316;16.174;2023-06-22T03:21:38;17.10;99.90
38860;DHT22;24609;48.316;16.174;2023-06-22T03:24:04;17.10;99.90
38860;DHT22;24609;48.316;16.174;2023-06-22T03:26:30;17.20;99.90
38860;DHT22;24609;48.316;16.174;2023-06-22T03:28:56;17.20;99.90
38860;DHT22;24609;48.316;16.174;2023-06-22T03:31:22;17.30;99.90
38860;DHT22;24609;48.316;16.174;2023-06-22T03:33:49;17.30;99.90
38860;DHT22;24609;48.316;16.174;2023-06-22T03:36:15;17.40;99.90
38860;DHT22;24609;48.316;16.174;2023-06-22T03:38:47;17.40;99.90
38860;DHT22;24609;48.316;16.174;2023-06-22T03:41:13;17.50;99.90
38860;DHT22;24609;48.316;16.174;2023-06-22T03:43:39;17.50;99.90
38860;DHT22;24609;48.316;16.174;2023-06-22T03:46:05;17.50;99.90
38860;DHT22;24609;48.316;16.174;2023-06-22T03:48:31;17.60;99.90
38860;DHT22;24609;48.316;16.174;2023-06-22T03:50:58;17.70;99.90
38860;DHT22;24609;48.316;16.174;2023-06-22T03:53:24;17.80;99.90
38860;DHT22;24609;48.316;16.174;2023-06-22T03:55:53;17.90;99.90
38860;DHT22;24609;48.316;16.174;2023-06-22T03:58:19;18.00;99.90
38860;DHT22;24609;48.316;16.174;2023-06-22T04:00:49;18.30;99.90
38860;DHT22;24609;48.316;16.174;2023-06-22T04:03:15;18.30;99.90
38860;DHT22;24609;48.316;16.174;2023-06-22T04:05:41;18.30;99.90
38860;DHT22;24609;48.316;16.174;2023-06-22T04:08:07;18.40;99.90
38860;DHT22;24609;48.316;16.174;2023-06-22T04:10:33;18.50;99.90
38860;DHT22;24609;48.316;16.174;2023-06-22T04:12:59;18.80;99.90
38860;DHT22;24609;48.316;16.174;2023-06-22T04:15:25;19.00;99.90
38860;DHT22;24609;48.316;16.174;2023-06-22T04:17:51;19.20;99.90
38860;DHT22;24609;48.316;16.174;2023-06-22T04:20:16;19.40;99.90
38860;DHT22;24609;48.316;16.174;2023-06-22T04:22:42;19.60;99.90
38860;DHT22;24609;48.316;16.174;2023-06-22T04:25:08;19.70;99.90
38860;DHT22;24609;48.316;16.174;2023-06-22T04:27:34;19.80;99.90
38860;DHT22;24609;48.316;16.174;2023-06-22T04:30:06;20.00;99.90
38860;DHT22;24609;48.316;16.174;2023-06-22T04:32:35;20.30;99.90
38860;DHT22;24609;48.316;16.174;2023-06-22T04:35:05;20.40;99.90
38860;DHT22;24609;48.316;16.174;2023-06-22T04:37:32;20.50;99.90
38860;DHT22;24609;48.316;16.174;2023-06-22T04:39:58;20.40;99.90
38860;DHT22;24609;48.316;16.174;2023-06-22T04:42:27;20.30;99.90
38860;DHT22;24609;48.316;16.174;2023-06-22T04:44:53;20.40;99.90
38860;DHT22;24609;48.316;16.174;2023-06-22T04:47:19;20.60;99.90
38860;DHT22;24609;48.316;16.174;2023-06-22T04:49:45;20.50;99.90
38860;DHT22;24609;48.316;16.174;2023-06-22T04:52:12;20.70;99.90
38860;DHT22;24609;48.316;16.174;2023-06-22T04:54:39;20.80;99.90
38860;DHT22;24609;48.316;16.174;2023-06-22T04:57:07;20.50;99.90
38860;DHT22;24609;48.316;16.174;2023-06-22T04:59:36;20.80;99.90
38860;DHT22;24609;48.316;16.174;2023-06-22T05:02:05;21.20;99.90
38860;DHT22;24609;48.316;16.174;2023-06-22T05:04:31;21.60;99.90
38860;DHT22;24609;48.316;16.174;2023-06-22T05:07:00;22.10;99.90
38860;DHT22;24609;48.316;16.174;2023-06-22T05:09:26;22.30;99.90
38860;DHT22;24609;48.316;16.174;2023-06-22T05:11:51;22.70;99.90
38860;DHT22;24609;48.316;16.174;2023-06-22T05:14:17;23.00;99.90
38860;DHT22;24609;48.316;16.174;2023-06-22T05:16:44;23.20;99.90
38860;DHT22;24609;48.316;16.174;2023-06-22T05:19:10;23.70;99.90
38860;DHT22;24609;48.316;16.174;2023-06-22T05:21:36;23.50;99.90
38860;DHT22;24609;48.316;16.174;2023-06-22T05:24:02;23.30;99.90
38860;DHT22;24609;48.316;16.174;2023-06-22T05:26:31;23.40;99.90
38860;DHT22;24609;48.316;16.174;2023-06-22T05:28:58;24.00;99.90
38860;DHT22;24609;48.316;16.174;2023-06-22T05:31:24;24.20;99.90
38860;DHT22;24609;48.316;16.174;2023-06-22T05:33:53;24.30;99.90
38860;DHT22;24609;48.316;16.174;2023-06-22T05:36:19;24.60;99.90
38860;DHT22;24609;48.316;16.174;2023-06-22T05:38:52;24.40;99.90
38860;DHT22;24609;48.316;16.174;2023-06-22T05:41:17;24.80;99.90
38860;DHT22;24609;48.316;16.174;2023-06-22T05:43:43;25.00;99.90
38860;DHT22;24609;48.316;16.174;2023-06-22T05:46:09;25.10;99.90
38860;DHT22;24609;48.316;16.174;2023-06-22T05:48:35;25.30;99.90
38860;DHT22;24609;48.316;16.174;2023-06-22T05:51:00;25.40;99.90
38860;DHT22;24609;48.316;16.174;2023-06-22T05:53:26;25.80;99.90
38860;DHT22;24609;48.316;16.174;2023-06-22T05:55:51;25.80;99.90
38860;DHT22;24609;48.316;16.174;2023-06-22T05:58:17;25.10;99.90
38860;DHT22;24609;48.316;16.174;2023-06-22T06:00:43;24.40;99.90
38860;DHT22;24609;48.316;16.174;2023-06-22T06:03:12;24.40;99.90
38860;DHT22;24609;48.316;16.174;2023-06-22T06:05:42;24.50;99.90
38860;DHT22;24609;48.316;16.174;2023-06-22T06:08:08;25.20;99.90
38860;DHT22;24609;48.316;16.174;2023-06-22T06:10:36;26.20;99.90
38860;DHT22;24609;48.316;16.174;2023-06-22T06:13:01;26.10;99.90
38860;DHT22;24609;48.316;16.174;2023-06-22T06:15:30;26.70;99.90
38860;DHT22;24609;48.316;16.174;2023-06-22T06:17:55;27.60;99.90
38860;DHT22;24609;48.316;16.174;2023-06-22T06:20:23;27.70;99.90
38860;DHT22;24609;48.316;16.174;2023-06-22T06:22:49;27.80;99.90
38860;DHT22;24609;48.316;16.174;2023-06-22T06:25:16;27.10;99.90
38860;DHT22;24609;48.316;16.174;2023-06-22T06:27:43;27.60;99.90
38860;DHT22;24609;48.316;16.174;2023-06-22T06:30:10;28.10;99.90
38860;DHT22;24609;48.316;16.174;2023-06-22T06:32:36;28.80;99.90
38860;DHT22;24609;48.316;16.174;2023-06-22T06:35:02;29.50;99.90
38860;DHT22;24609;48.316;16.174;2023-06-22T06:37:27;28.50;99.90
38860;DHT22;24609;48.316;16.174;2023-06-22T06:39:53;28.80;99.90
38860;DHT22;24609;48.316;16.174;2023-06-22T06:42:19;28.50;99.90
38860;DHT22;24609;48.316;16.174;2023-06-22T06:44:45;29.50;99.90
38860;DHT22;24609;48.316;16.174;2023-06-22T06:47:11;30.50;99.90
38860;DHT22;24609;48.316;16.174;2023-06-22T06:49:36;30.10;99.90
38860;DHT22;24609;48.316;16.174;2023-06-22T06:52:02;30.30;99.90
38860;DHT22;24609;48.316;16.174;2023-06-22T06:54:28;29.40;99.90
38860;DHT22;24609;48.316;16.174;2023-06-22T06:56:54;29.80;99.90
38860;DHT22;24609;48.316;16.174;2023-06-22T06:59:19;30.10;99.90
38860;DHT22;24609;48.316;16.174;2023-06-22T07:01:45;29.90;99.90
38860;DHT22;24609;48.316;16.174;2023-06-22T07:04:14;30.10;99.90
38860;DHT22;24609;48.316;16.174;2023-06-22T07:06:40;30.00;99.90
38860;DHT22;24609;48.316;16.174;2023-06-22T07:09:05;29.70;99.90
38860;DHT22;24609;48.316;16.174;2023-06-22T07:11:31;29.40;99.90
38860;DHT22;24609;48.316;16.174;2023-06-22T07:13:57;29.20;99.90
38860;DHT22;24609;48.316;16.174;2023-06-22T07:16:22;29.30;99.90
38860;DHT22;24609;48.316;16.174;2023-06-22T07:18:49;29.30;99.90
38860;DHT22;24609;48.316;16.174;2023-06-22T07:21:14;29.10;99.90
38860;DHT22;24609;48.316;16.174;2023-06-22T07:23:40;29.50;99.90
38860;DHT22;24609;48.316;16.174;2023-06-22T07:26:06;29.70;99.90
38860;DHT22;24609;48.316;16.174;2023-06-22T07:28:32;29.60;99.90
38860;DHT22;24609;48.316;16.174;2023-06-22T07:31:02;29.50;99.90
38860;DHT22;24609;48.316;16.174;2023-06-22T07:33:29;29.60;99.90
38860;DHT22;24609;48.316;16.174;2023-06-22T07:35:55;29.50;99.90
38860;DHT22;24609;48.316;16.174;2023-06-22T07:38:20;29.20;99.90
38860;DHT22;24609;48.316;16.174;2023-06-22T07:40:46;28.60;99.90
38860;DHT22;24609;48.316;16.174;2023-06-22T07:43:12;28.70;99.90
38860;DHT22;24609;48.316;16.174;2023-06-22T07:45:38;28.90;99.90
38860;DHT22;24609;48.316;16.174;2023-06-22T07:48:07;28.70;99.90
38860;DHT22;24609;48.316;16.174;2023-06-22T07:50:32;29.00;99.90
38860;DHT22;24609;48.316;16.174;2023-06-22T07:52:58;29.00;99.90
38860;DHT22;24609;48.316;16.174;2023-06-22T07:55:24;29.00;99.90
38860;DHT22;24609;48.316;16.174;2023-06-22T07:57:50;29.20;99.90
38860;DHT22;24609;48.316;16.174;2023-06-22T08:00:17;29.40;99.90
38860;DHT22;24609;48.316;16.174;2023-06-22T08:02:45;29.30;99.90
38860;DHT22;24609;48.316;16.174;2023-06-22T08:05:11;29.70;99.90
38860;DHT22;24609;48.316;16.174;2023-06-22T08:07:38;30.20;99.90
38860;DHT22;24609;48.316;16.174;2023-06-22T08:10:10;30.90;99.90
38860;DHT22;24609;48.316;16.174;2023-06-22T08:12:36;31.90;99.90
38860;DHT22;24609;48.316;16.174;2023-06-22T08:15:02;32.40;99.30
38860;DHT22;24609;48.316;16.174;2023-06-22T08:17:28;32.40;97.50
38860;DHT22;24609;48.316;16.174;2023-06-22T08:19:54;32.50;96.80
38860;DHT22;24609;48.316;16.174;2023-06-22T08:22:20;33.60;97.00
38860;DHT22;24609;48.316;16.174;2023-06-22T08:24:46;34.40;95.30
38860;DHT22;24609;48.316;16.174;2023-06-22T08:27:11;34.50;91.90
38860;DHT22;24609;48.316;16.174;2023-06-22T08:29:39;34.70;90.30
38860;DHT22;24609;48.316;16.174;2023-06-22T08:32:05;35.80;89.80
38860;DHT22;24609;48.316;16.174;2023-06-22T08:34:31;35.00;83.40
38860;DHT22;24609;48.316;16.174;2023-06-22T08:36:56;35.10;83.80
38860;DHT22;24609;48.316;16.174;2023-06-22T08:39:22;35.10;82.80
38860;DHT22;24609;48.316;16.174;2023-06-22T08:41:48;35.20;80.80
38860;DHT22;24609;48.316;16.174;2023-06-22T08:44:15;35.60;77.90
38860;DHT22;24609;48.316;16.174;2023-06-22T08:46:41;36.10;77.00
38860;DHT22;24609;48.316;16.174;2023-06-22T08:49:07;36.20;74.20
38860;DHT22;24609;48.316;16.174;2023-06-22T08:51:33;37.20;73.60
38860;DHT22;24609;48.316;16.174;2023-06-22T08:53:59;36.60;68.70
38860;DHT22;24609;48.316;16.174;2023-06-22T08:56:25;36.60;67.00
38860;DHT22;24609;48.316;16.174;2023-06-22T08:58:50;37.00;67.00
38860;DHT22;24609;48.316;16.174;2023-06-22T09:01:16;36.40;65.70
38860;DHT22;24609;48.316;16.174;2023-06-22T09:03:43;36.80;66.60
38860;DHT22;24609;48.316;16.174;2023-06-22T09:06:09;36.80;62.80
38860;DHT22;24609;48.316;16.174;2023-06-22T09:08:36;36.90;61.70
38860;DHT22;24609;48.316;16.174;2023-06-22T09:11:01;37.00;60.70
38860;DHT22;24609;48.316;16.174;2023-06-22T09:13:30;36.90;63.70
38860;DHT22;24609;48.316;16.174;2023-06-22T09:15:57;37.00;59.80
38860;DHT22;24609;48.316;16.174;2023-06-22T09:18:22;37.70;64.20
38860;DHT22;24609;48.316;16.174;2023-06-22T09:20:48;38.20;58.30
38860;DHT22;24609;48.316;16.174;2023-06-22T09:23:17;38.60;56.70
38860;DHT22;24609;48.316;16.174;2023-06-22T09:25:42;38.10;56.00
38860;DHT22;24609;48.316;16.174;2023-06-22T09:28:08;38.60;55.30
38860;DHT22;24609;48.316;16.174;2023-06-22T09:30:34;39.30;54.60
38860;DHT22;24609;48.316;16.174;2023-06-22T09:33:00;39.80;52.70
38860;DHT22;24609;48.316;16.174;2023-06-22T09:35:26;39.90;52.90
38860;DHT22;24609;48.316;16.174;2023-06-22T09:37:54;39.40;51.90
38860;DHT22;24609;48.316;16.174;2023-06-22T09:40:20;38.30;51.90
38860;DHT22;24609;48.316;16.174;2023-06-22T09:42:45;37.90;52.90
38860;DHT22;24609;48.316;16.174;2023-06-22T09:45:11;39.30;53.10
38860;DHT22;24609;48.316;16.174;2023-06-22T09:47:37;38.80;54.00
38860;DHT22;24609;48.316;16.174;2023-06-22T09:50:03;39.90;51.50
38860;DHT22;24609;48.316;16.174;2023-06-22T09:52:32;40.70;49.80
38860;DHT22;24609;48.316;16.174;2023-06-22T09:55:00;39.50;50.10
38860;DHT22;24609;48.316;16.174;2023-06-22T09:57:26;40.10;50.50
38860;DHT22;24609;48.316;16.174;2023-06-22T09:59:52;40.60;50.50
38860;DHT22;24609;48.316;16.174;2023-06-22T10:02:17;40.80;48.30
38860;DHT22;24609;48.316;16.174;2023-06-22T10:04:43;39.80;47.70
38860;DHT22;24609;48.316;16.174;2023-06-22T10:07:09;40.40;48.40
38860;DHT22;24609;48.316;16.174;2023-06-22T10:09:35;39.70;47.20
38860;DHT22;24609;48.316;16.174;2023-06-22T10:12:01;39.60;48.80
38860;DHT22;24609;48.316;16.174;2023-06-22T10:14:27;39.30;49.50
38860;DHT22;24609;48.316;16.174;2023-06-22T10:16:55;39.70;48.50
38860;DHT22;24609;48.316;16.174;2023-06-22T10:19:20;39.10;47.40
38860;DHT22;24609;48.316;16.174;2023-06-22T10:21:46;39.50;47.60
38860;DHT22;24609;48.316;16.174;2023-06-22T10:24:12;38.40;47.90
38860;DHT22;24609;48.316;16.174;2023-06-22T10:26:38;37.20;50.70
38860;DHT22;24609;48.316;16.174;2023-06-22T10:29:03;38.20;49.50
38860;DHT22;24609;48.316;16.174;2023-06-22T10:31:29;39.70;48.40
38860;DHT22;24609;48.316;16.174;2023-06-22T10:33:55;40.60;47.10
38860;DHT22;24609;48.316;16.174;2023-06-22T10:36:22;41.60;44.50
38860;DHT22;24609;48.316;16.174;2023-06-22T10:38:48;41.70;44.60
38860;DHT22;24609;48.316;16.174;2023-06-22T10:41:14;42.00;42.70
38860;DHT22;24609;48.316;16.174;2023-06-22T10:43:40;43.70;42.70
38860;DHT22;24609;48.316;16.174;2023-06-22T10:46:07;44.20;42.50
38860;DHT22;24609;48.316;16.174;2023-06-22T10:48:33;42.80;41.00
38860;DHT22;24609;48.316;16.174;2023-06-22T10:50:59;43.00;39.90
38860;DHT22;24609;48.316;16.174;2023-06-22T10:53:24;41.30;41.50
38860;DHT22;24609;48.316;16.174;2023-06-22T10:55:50;41.70;42.00
38860;DHT22;24609;48.316;16.174;2023-06-22T10:58:18;42.10;40.70
38860;DHT22;24609;48.316;16.174;2023-06-22T11:00:44;40.60;41.70
38860;DHT22;24609;48.316;16.174;2023-06-22T11:03:10;41.10;41.20
38860;DHT22;24609;48.316;16.174;2023-06-22T11:05:38;41.20;41.80
38860;DHT22;24609;48.316;16.174;2023-06-22T11:08:14;40.90;41.60
38860;DHT22;24609;48.316;16.174;2023-06-22T11:10:43;42.50;40.50
38860;DHT22;24609;48.316;16.174;2023-06-22T11:13:09;42.10;40.30
38860;DHT22;24609;48.316;16.174;2023-06-22T11:15:38;41.70;39.70
38860;DHT22;24609;48.316;16.174;2023-06-22T11:18:07;42.20;40.20
38860;DHT22;24609;48.316;16.174;2023-06-22T11:20:36;42.40;39.00
38860;DHT22;24609;48.316;16.174;2023-06-22T11:23:07;41.70;40.60
38860;DHT22;24609;48.316;16.174;2023-06-22T11:25:41;41.10;39.80
38860;DHT22;24609;48.316;16.174;2023-06-22T11:28:17;42.00;40.90
38860;DHT22;24609;48.316;16.174;2023-06-22T11:30:42;43.50;39.00
38860;DHT22;24609;48.316;16.174;2023-06-22T11:33:08;42.90;38.40
38860;DHT22;24609;48.316;16.174;2023-06-22T11:35:40;42.90;38.40
38860;DHT22;24609;48.316;16.174;2023-06-22T11:38:09;43.20;38.90
38860;DHT22;24609;48.316;16.174;2023-06-22T11:40:35;42.80;38.90
38860;DHT22;24609;48.316;16.174;2023-06-22T11:43:00;42.70;40.20
38860;DHT22;24609;48.316;16.174;2023-06-22T11:45:27;42.40;37.40
38860;DHT22;24609;48.316;16.174;2023-06-22T11:47:52;42.50;37.90
38860;DHT22;24609;48.316;16.174;2023-06-22T11:50:18;42.00;39.50
38860;DHT22;24609;48.316;16.174;2023-06-22T11:52:44;41.40;38.70
38860;DHT22;24609;48.316;16.174;2023-06-22T11:55:10;41.40;38.80
38860;DHT22;24609;48.316;16.174;2023-06-22T11:57:52;42.10;38.00
38860;DHT22;24609;48.316;16.174;2023-06-22T12:00:20;42.20;38.10
38860;DHT22;24609;48.316;16.174;2023-06-22T12:02:47;42.00;37.70
38860;DHT22;24609;48.316;16.174;2023-06-22T12:05:13;41.70;36.90
38860;DHT22;24609;48.316;16.174;2023-06-22T12:07:44;42.30;36.70
38860;DHT22;24609;48.316;16.174;2023-06-22T12:10:10;42.50;36.00
38860;DHT22;24609;48.316;16.174;2023-06-22T12:12:35;41.90;36.10
38860;DHT22;24609;48.316;16.174;2023-06-22T12:15:01;41.90;36.90
38860;DHT22;24609;48.316;16.174;2023-06-22T12:17:29;41.00;38.60
38860;DHT22;24609;48.316;16.174;2023-06-22T12:19:55;41.50;41.10
38860;DHT22;24609;48.316;16.174;2023-06-22T12:22:21;42.10;37.90
38860;DHT22;24609;48.316;16.174;2023-06-22T12:24:47;40.20;39.30
38860;DHT22;24609;48.316;16.174;2023-06-22T12:27:15;40.20;40.20
38860;DHT22;24609;48.316;16.174;2023-06-22T12:29:46;38.90;41.70
38860;DHT22;24609;48.316;16.174;2023-06-22T12:32:11;40.70;40.60
38860;DHT22;24609;48.316;16.174;2023-06-22T12:34:44;42.70;38.00
38860;DHT22;24609;48.316;16.174;2023-06-22T12:37:15;41.80;39.30
38860;DHT22;24609;48.316;16.174;2023-06-22T12:39:41;41.80;38.80
38860;DHT22;24609;48.316;16.174;2023-06-22T12:42:10;42.00;37.30
38860;DHT22;24609;48.316;16.174;2023-06-22T12:44:41;41.70;37.40
38860;DHT22;24609;48.316;16.174;2023-06-22T12:47:09;42.20;37.70
38860;DHT22;24609;48.316;16.174;2023-06-22T12:49:36;41.20;37.00
38860;DHT22;24609;48.316;16.174;2023-06-22T12:52:03;41.30;37.60
38860;DHT22;24609;48.316;16.174;2023-06-22T12:54:29;41.50;38.10
38860;DHT22;24609;48.316;16.174;2023-06-22T12:56:55;41.90;38.10
38860;DHT22;24609;48.316;16.174;2023-06-22T12:59:30;40.60;37.00
38860;DHT22;24609;48.316;16.174;2023-06-22T13:02:04;40.90;37.60
38860;DHT22;24609;48.316;16.174;2023-06-22T13:05:02;42.30;37.90
38860;DHT22;24609;48.316;16.174;2023-06-22T13:07:30;42.20;36.70
38860;DHT22;24609;48.316;16.174;2023-06-22T13:09:56;42.30;36.60
38860;DHT22;24609;48.316;16.174;2023-06-22T13:12:22;42.40;36.50
38860;DHT22;24609;48.316;16.174;2023-06-22T13:14:48;42.10;37.80
38860;DHT22;24609;48.316;16.174;2023-06-22T13:17:17;42.50;37.40
38860;DHT22;24609;48.316;16.174;2023-06-22T13:20:06;42.00;36.90
38860;DHT22;24609;48.316;16.174;2023-06-22T13:22:37;43.20;37.30
38860;DHT22;24609;48.316;16.174;2023-06-22T13:25:26;43.40;35.40
38860;DHT22;24609;48.316;16.174;2023-06-22T13:28:01;43.20;33.80
38860;DHT22;24609;48.316;16.174;2023-06-22T13:30:29;42.40;36.10
38860;DHT22;24609;48.316;16.174;2023-06-22T13:32:59;42.50;37.50
38860;DHT22;24609;48.316;16.174;2023-06-22T13:35:30;40.60;37.60
38860;DHT22;24609;48.316;16.174;2023-06-22T13:37:56;41.00;38.00
38860;DHT22;24609;48.316;16.174;2023-06-22T13:40:22;42.20;37.20
38860;DHT22;24609;48.316;16.174;2023-06-22T13:42:48;41.50;36.80
38860;DHT22;24609;48.316;16.174;2023-06-22T13:45:13;42.70;36.70
38860;DHT22;24609;48.316;16.174;2023-06-22T13:47:41;42.60;36.40
38860;DHT22;24609;48.316;16.174;2023-06-22T13:50:07;42.10;36.60
38860;DHT22;24609;48.316;16.174;2023-06-22T13:52:33;41.80;36.50
38860;DHT22;24609;48.316;16.174;2023-06-22T13:55:06;39.90;38.30
38860;DHT22;24609;48.316;16.174;2023-06-22T13:57:35;38.80;41.10
38860;DHT22;24609;48.316;16.174;2023-06-22T14:00:02;38.90;41.40
38860;DHT22;24609;48.316;16.174;2023-06-22T14:02:30;38.30;41.60
38860;DHT22;24609;48.316;16.174;2023-06-22T14:04:56;38.50;42.90
38860;DHT22;24609;48.316;16.174;2023-06-22T14:07:21;37.90;43.60
38860;DHT22;24609;48.316;16.174;2023-06-22T14:09:48;39.30;41.60
38860;DHT22;24609;48.316;16.174;2023-06-22T14:12:13;39.40;40.80
38860;DHT22;24609;48.316;16.174;2023-06-22T14:14:39;39.40;41.70
38860;DHT22;24609;48.316;16.174;2023-06-22T14:17:05;39.00;41.20
38860;DHT22;24609;48.316;16.174;2023-06-22T14:19:31;38.30;41.40
38860;DHT22;24609;48.316;16.174;2023-06-22T14:21:57;38.00;43.00
38860;DHT22;24609;48.316;16.174;2023-06-22T14:24:23;39.20;41.70
38860;DHT22;24609;48.316;16.174;2023-06-22T14:26:49;40.90;39.70
38860;DHT22;24609;48.316;16.174;2023-06-22T14:29:14;40.90;39.90
38860;DHT22;24609;48.316;16.174;2023-06-22T14:31:40;39.00;42.20
38860;DHT22;24609;48.316;16.174;2023-06-22T14:34:06;38.20;42.30
38860;DHT22;24609;48.316;16.174;2023-06-22T14:36:32;37.40;43.30
38860;DHT22;24609;48.316;16.174;2023-06-22T14:38:57;38.80;42.40
38860;DHT22;24609;48.316;16.174;2023-06-22T14:41:23;39.70;41.70
38860;DHT22;24609;48.316;16.174;2023-06-22T14:43:50;37.10;42.80
38860;DHT22;24609;48.316;16.174;2023-06-22T14:46:17;36.30;45.90
38860;DHT22;24609;48.316;16.174;2023-06-22T14:48:50;36.00;46.50
38860;DHT22;24609;48.316;16.174;2023-06-22T14:51:18;36.10;45.60
38860;DHT22;24609;48.316;16.174;2023-06-22T14:53:47;37.00;45.40
38860;DHT22;24609;48.316;16.174;2023-06-22T14:56:18;38.70;42.80
38860;DHT22;24609;48.316;16.174;2023-06-22T14:58:44;39.50;42.70
38860;DHT22;24609;48.316;16.174;2023-06-22T15:01:13;40.30;39.90
38860;DHT22;24609;48.316;16.174;2023-06-22T15:03:39;40.00;40.90
38860;DHT22;24609;48.316;16.174;2023-06-22T15:06:05;40.10;39.10
38860;DHT22;24609;48.316;16.174;2023-06-22T15:08:32;41.50;39.80
38860;DHT22;24609;48.316;16.174;2023-06-22T15:11:01;41.30;38.50
38860;DHT22;24609;48.316;16.174;2023-06-22T15:13:27;40.40;40.30
38860;DHT22;24609;48.316;16.174;2023-06-22T15:15:54;39.70;41.30
38860;DHT22;24609;48.316;16.174;2023-06-22T15:18:20;39.00;41.60
38860;DHT22;24609;48.316;16.174;2023-06-22T15:20:46;38.70;42.20
38860;DHT22;24609;48.316;16.174;2023-06-22T15:23:13;38.70;42.20